Time;durP1;ratioP1;P1;durP2;ratioP2;P2;SDS_P1;SDS_P2;PMS_P1;PMS_P2;Temp;Humidity;BMP_temperature;BMP_pressure;BME280_temperature;BME280_humidity;BME280_pressure;Samples;Min_cycle;Max_cycle;Signal;HPM_P1;HPM_P2
2022/11/23 00:02:20;;;;;;;53.60;28.17;;;2.80;99.90;;;;;;5076671;28;20462;-65
2022/11/23 00:04:47;;;;;;;56.60;28.83;;;3.00;99.90;;;;;;5076937;28;20451;-65
2022/11/23 00:07:14;;;;;;;58.53;28.73;;;3.00;99.90;;;;;;5076484;28;20502;-64
2022/11/23 00:09:41;;;;;;;56.03;25.57;;;3.00;99.90;;;;;;5077019;28;20458;-64
2022/11/23 00:12:08;;;;;;;52.97;27.40;;;2.90;99.90;;;;;;5076750;28;20471;-65
2022/11/23 00:14:36;;;;;;;55.83;27.10;;;2.90;99.90;;;;;;5077472;28;20906;-65
2022/11/23 00:17:03;;;;;;;53.53;25.27;;;2.90;99.90;;;;;;5078680;28;20505;-65
2022/11/23 00:19:31;;;;;;;54.90;25.00;;;2.80;99.90;;;;;;5078858;28;20451;-65
2022/11/23 00:21:58;;;;;;;54.83;27.47;;;2.80;99.90;;;;;;5076721;28;20535;-66
2022/11/23 00:24:25;;;;;;;54.53;26.50;;;2.80;99.90;;;;;;5076805;28;20541;-66
2022/11/23 00:26:52;;;;;;;48.43;26.63;;;2.80;99.90;;;;;;5076517;28;20529;-65
2022/11/23 00:29:19;;;;;;;50.37;25.80;;;2.80;99.90;;;;;;5076834;28;20458;-64
2022/11/23 00:31:46;;;;;;;44.13;24.50;;;2.80;99.90;;;;;;5076102;28;20465;-65
2022/11/23 00:34:13;;;;;;;48.97;25.30;;;2.80;99.90;;;;;;5076466;28;20519;-65
2022/11/23 00:36:41;;;;;;;47.83;26.20;;;2.80;99.90;;;;;;5075974;28;20990;-65
2022/11/23 00:39:08;;;;;;;62.47;26.63;;;2.70;99.90;;;;;;5076354;28;20786;-65
2022/11/23 00:41:35;;;;;;;49.37;25.70;;;2.70;99.90;;;;;;5075122;28;20561;-65
2022/11/23 00:44:02;;;;;;;50.53;25.23;;;2.70;99.90;;;;;;5076159;28;20536;-65
2022/11/23 00:46:29;;;;;;;48.07;25.87;;;2.70;99.90;;;;;;5076011;28;20474;-65
2022/11/23 00:48:57;;;;;;;47.50;25.60;;;2.70;99.90;;;;;;5076156;28;20504;-65
2022/11/23 00:51:26;;;;;;;49.17;25.37;;;2.70;99.90;;;;;;5075870;28;20474;-66
2022/11/23 00:53:54;;;;;;;49.43;24.90;;;2.70;99.90;;;;;;5076283;28;20458;-65
2022/11/23 00:56:22;;;;;;;53.97;25.50;;;2.70;99.90;;;;;;5076642;28;20859;-65
2022/11/23 00:58:49;;;;;;;50.47;25.03;;;2.70;99.90;;;;;;5076587;28;20455;-66
2022/11/23 01:01:17;;;;;;;47.73;25.57;;;2.70;99.90;;;;;;5076001;28;20949;-65
2022/11/23 01:03:46;;;;;;;52.80;27.17;;;2.70;99.90;;;;;;5075481;28;20458;-65
2022/11/23 01:06:15;;;;;;;59.63;27.47;;;2.70;99.90;;;;;;5075767;28;20485;-65
2022/11/23 01:08:42;;;;;;;45.70;26.33;;;2.80;99.90;;;;;;5076117;28;20925;-64
2022/11/23 01:11:12;;;;;;;43.63;24.67;;;2.80;99.90;;;;;;5075955;28;20486;-64
2022/11/23 01:13:40;;;;;;;48.23;24.60;;;2.80;99.90;;;;;;5075785;28;20485;-66
2022/11/23 01:16:09;;;;;;;49.70;26.13;;;2.80;99.90;;;;;;5075488;28;20486;-64
2022/11/23 01:18:36;;;;;;;55.93;28.63;;;2.80;99.90;;;;;;5075601;28;20546;-65
2022/11/23 01:21:03;;;;;;;49.23;26.13;;;2.80;99.90;;;;;;5075557;28;20489;-64
2022/11/23 01:23:30;;;;;;;48.80;27.07;;;2.80;99.90;;;;;;5075428;28;20466;-65
2022/11/23 01:25:57;;;;;;;47.63;24.70;;;2.80;99.90;;;;;;5075062;28;20572;-66
2022/11/23 01:28:26;;;;;;;45.20;25.17;;;2.90;99.90;;;;;;5075060;28;20563;-64
2022/11/23 01:30:53;;;;;;;52.60;25.87;;;2.80;99.90;;;;;;5075224;28;20462;-66
2022/11/23 01:33:20;;;;;;;43.77;24.60;;;2.80;99.90;;;;;;5075030;28;20961;-65
2022/11/23 01:35:46;;;;;;;47.63;25.37;;;2.90;99.90;;;;;;5075138;28;20903;-65
2022/11/23 01:38:13;;;;;;;51.83;27.40;;;2.90;99.90;;;;;;5074934;28;20466;-65
2022/11/23 01:40:41;;;;;;;52.53;24.87;;;2.90;99.90;;;;;;5075196;28;20914;-65
2022/11/23 01:43:15;;;;;;;47.60;26.63;;;2.90;99.90;;;;;;5074925;28;20458;-65
2022/11/23 01:45:55;;;;;;;46.17;25.27;;;3.00;99.90;;;;;;5075009;28;20537;-65
2022/11/23 01:48:26;;;;;;;43.83;23.73;;;3.00;99.90;;;;;;5075004;28;20529;-65
2022/11/23 01:50:55;;;;;;;50.53;26.83;;;3.10;99.90;;;;;;5075381;28;20508;-66
2022/11/23 01:53:22;;;;;;;51.37;27.03;;;3.10;99.90;;;;;;5074555;28;20545;-66
2022/11/23 01:55:51;;;;;;;47.00;24.67;;;3.10;99.90;;;;;;5074963;28;20520;-65
2022/11/23 01:58:22;;;;;;;41.93;23.07;;;3.10;99.90;;;;;;5074861;28;20494;-65
2022/11/23 02:00:51;;;;;;;45.07;24.57;;;3.10;99.90;;;;;;5075223;28;20879;-65
2022/11/23 02:03:18;;;;;;;45.47;25.33;;;3.10;99.90;;;;;;5074957;28;20494;-66
2022/11/23 02:05:48;;;;;;;44.43;24.83;;;3.20;99.90;;;;;;5075086;28;20541;-66
2022/11/23 02:08:18;;;;;;;41.80;23.27;;;3.20;99.90;;;;;;5075053;28;20909;-65
2022/11/23 02:10:46;;;;;;;47.50;26.20;;;3.20;99.90;;;;;;5074685;28;20438;-65
2022/11/23 02:13:13;;;;;;;38.13;23.00;;;3.20;99.90;;;;;;5074508;28;20946;-65
2022/11/23 02:15:41;;;;;;;41.97;24.67;;;3.30;99.90;;;;;;5074488;28;20459;-66
2022/11/23 02:18:13;;;;;;;48.00;24.57;;;3.30;99.90;;;;;;5074449;28;20450;-66
2022/11/23 02:20:40;;;;;;;43.67;24.13;;;3.30;99.90;;;;;;5074645;28;20443;-66
2022/11/23 02:23:18;;;;;;;44.70;23.87;;;3.30;99.90;;;;;;5074472;28;20547;-65
2022/11/23 02:26:00;;;;;;;40.97;23.97;;;3.40;99.90;;;;;;5074181;28;20486;-65
2022/11/23 02:28:29;;;;;;;39.33;22.77;;;3.40;99.90;;;;;;5074936;28;20482;-66
2022/11/23 02:30:56;;;;;;;45.50;23.40;;;3.40;99.90;;;;;;5075009;28;20458;-65
2022/11/23 02:33:24;;;;;;;43.97;22.87;;;3.40;99.90;;;;;;5074771;28;20508;-67
2022/11/23 02:35:53;;;;;;;39.90;24.00;;;3.40;99.90;;;;;;5074971;28;20454;-65
2022/11/23 02:38:21;;;;;;;41.07;24.87;;;3.40;99.90;;;;;;5074569;28;20458;-65
2022/11/23 02:40:48;;;;;;;44.83;24.53;;;3.40;99.90;;;;;;5074626;28;20809;-66
2022/11/23 02:43:17;;;;;;;42.67;22.67;;;3.40;99.90;;;;;;5074879;28;20461;-65
2022/11/23 02:45:48;;;;;;;40.50;22.60;;;3.40;99.90;;;;;;5074198;28;20953;-64
2022/11/23 02:48:15;;;;;;;42.07;23.13;;;3.40;99.90;;;;;;5074832;28;20463;-65
2022/11/23 02:50:42;;;;;;;47.80;24.87;;;3.40;99.90;;;;;;5074585;28;20454;-64
2022/11/23 02:53:09;;;;;;;47.57;23.80;;;3.30;99.90;;;;;;5074087;28;20454;-66
2022/11/23 02:55:36;;;;;;;39.70;22.77;;;3.30;99.90;;;;;;5074463;28;20519;-65
2022/11/23 02:58:04;;;;;;;44.90;24.47;;;3.30;99.90;;;;;;5074515;28;20507;-65
2022/11/23 03:00:33;;;;;;;35.47;21.87;;;3.30;99.90;;;;;;5074421;28;20565;-65
2022/11/23 03:03:01;;;;;;;46.03;25.00;;;3.30;99.90;;;;;;5074739;28;20507;-64
2022/11/23 03:05:28;;;;;;;40.40;22.83;;;3.30;99.90;;;;;;5078192;28;20834;-66
2022/11/23 03:07:55;;;;;;;43.27;25.00;;;3.30;99.90;;;;;;5080470;28;20494;-66
2022/11/23 03:10:22;;;;;;;40.67;23.93;;;3.30;99.90;;;;;;5079024;28;20497;-66
2022/11/23 03:12:49;;;;;;;43.17;23.67;;;3.30;99.90;;;;;;5077521;28;20489;-65
2022/11/23 03:15:16;;;;;;;41.37;22.70;;;3.30;99.90;;;;;;5077707;28;20540;-65
2022/11/23 03:17:45;;;;;;;40.03;23.63;;;3.20;99.90;;;;;;5078588;28;20493;-64
2022/11/23 03:20:12;;;;;;;39.07;23.07;;;3.20;99.90;;;;;;5077846;28;20535;-65
2022/11/23 03:22:39;;;;;;;46.23;25.00;;;3.20;99.90;;;;;;5078100;28;20462;-65
2022/11/23 03:25:07;;;;;;;39.60;22.50;;;3.20;99.90;;;;;;5077556;28;20962;-65
2022/11/23 03:27:34;;;;;;;42.90;23.40;;;3.20;99.90;;;;;;5077835;28;20977;-66
2022/11/23 03:30:01;;;;;;;50.27;24.93;;;3.20;99.90;;;;;;5077862;28;20457;-65
2022/11/23 03:32:28;;;;;;;43.13;23.23;;;3.10;99.90;;;;;;5077907;28;20453;-65
2022/11/23 03:34:58;;;;;;;45.07;24.40;;;3.10;99.90;;;;;;5078184;28;20511;-65
2022/11/23 03:37:25;;;;;;;47.67;24.20;;;3.00;99.90;;;;;;5077374;28;20454;-65
2022/11/23 03:39:52;;;;;;;41.07;23.50;;;3.00;99.90;;;;;;5077603;28;20965;-65
2022/11/23 03:42:19;;;;;;;45.77;24.43;;;3.00;99.90;;;;;;5077247;28;20494;-64
2022/11/23 03:44:46;;;;;;;44.93;24.10;;;2.90;99.90;;;;;;5077802;28;20911;-64
2022/11/23 03:47:13;;;;;;;44.10;24.50;;;2.90;99.90;;;;;;5077142;28;20941;-65
2022/11/23 03:49:40;;;;;;;42.40;24.00;;;2.90;99.90;;;;;;5077268;28;20454;-65
2022/11/23 03:52:09;;;;;;;49.73;25.30;;;2.80;99.90;;;;;;5077484;28;20486;-64
2022/11/23 03:54:36;;;;;;;36.87;23.37;;;2.80;99.90;;;;;;5077438;28;20450;-66
2022/11/23 03:57:03;;;;;;;41.17;23.73;;;2.80;99.90;;;;;;5077828;28;20537;-66
2022/11/23 03:59:30;;;;;;;45.63;24.30;;;2.80;99.90;;;;;;5077485;28;20489;-66
2022/11/23 04:01:56;;;;;;;46.60;23.97;;;2.80;99.90;;;;;;5077526;28;20549;-66
2022/11/23 04:04:23;;;;;;;44.40;23.73;;;2.80;99.90;;;;;;5078310;28;20492;-65
2022/11/23 04:06:50;;;;;;;45.03;24.40;;;2.80;99.90;;;;;;5076659;28;20566;-65
2022/11/23 04:09:19;;;;;;;44.07;25.23;;;2.80;99.90;;;;;;5076882;28;20465;-65
2022/11/23 04:11:45;;;;;;;45.37;24.97;;;2.90;99.90;;;;;;5076873;28;20883;-66
2022/11/23 04:14:12;;;;;;;43.47;24.03;;;2.80;99.90;;;;;;5077696;28;20458;-65
2022/11/23 04:16:39;;;;;;;49.90;24.37;;;2.80;99.90;;;;;;5076625;28;20462;-65
2022/11/23 04:19:06;;;;;;;41.10;23.57;;;2.80;99.90;;;;;;5076838;28;20458;-66
2022/11/23 04:21:33;;;;;;;40.80;24.03;;;2.80;99.90;;;;;;5076956;28;20497;-65
2022/11/23 04:24:00;;;;;;;46.10;24.50;;;2.80;99.90;;;;;;5076747;28;20466;-66
2022/11/23 04:26:29;;;;;;;49.37;26.90;;;2.80;99.90;;;;;;5076409;28;20518;-64
2022/11/23 04:28:56;;;;;;;45.73;24.10;;;2.80;99.90;;;;;;5076456;28;20490;-65
2022/11/23 04:31:22;;;;;;;44.77;23.77;;;2.80;99.90;;;;;;5076507;28;20484;-66
2022/11/23 04:33:49;;;;;;;48.77;24.43;;;2.80;99.90;;;;;;5076623;28;20458;-66
2022/11/23 04:36:16;;;;;;;43.67;24.43;;;2.90;99.90;;;;;;5076486;28;20501;-65
2022/11/23 04:38:43;;;;;;;42.03;24.00;;;2.90;99.90;;;;;;5076010;28;20454;-66
2022/11/23 04:41:10;;;;;;;45.47;22.33;;;2.90;99.90;;;;;;5076380;28;20878;-65
2022/11/23 04:43:39;;;;;;;43.23;24.03;;;2.80;99.90;;;;;;5076403;28;20799;-65
2022/11/23 04:46:06;;;;;;;42.53;22.73;;;2.80;99.90;;;;;;5075703;28;20511;-66
2022/11/23 04:48:33;;;;;;;40.37;22.20;;;2.70;99.90;;;;;;5075941;28;20478;-64
2022/11/23 04:51:00;;;;;;;49.27;23.60;;;2.70;99.90;;;;;;5075777;28;20458;-65
2022/11/23 04:53:27;;;;;;;40.43;21.90;;;2.70;99.90;;;;;;5075898;28;20512;-66
2022/11/23 04:55:53;;;;;;;41.17;21.87;;;2.70;99.90;;;;;;5076034;28;20505;-65
2022/11/23 04:58:20;;;;;;;37.53;22.33;;;2.70;99.90;;;;;;5078299;28;20556;-67
2022/11/23 05:00:49;;;;;;;42.50;23.03;;;2.70;99.90;;;;;;5089602;28;20454;-67
2022/11/23 05:03:16;;;;;;;40.30;23.40;;;2.70;99.90;;;;;;5088968;28;20533;-67
2022/11/23 05:05:43;;;;;;;41.20;24.77;;;2.70;99.90;;;;;;5087841;28;20450;-67
2022/11/23 05:08:11;;;;;;;45.50;23.80;;;2.70;99.90;;;;;;5087361;28;20486;-67
2022/11/23 05:10:38;;;;;;;43.37;24.37;;;2.70;99.90;;;;;;5087650;28;20976;-67
2022/11/23 05:13:04;;;;;;;44.03;22.47;;;2.70;99.90;;;;;;5088120;28;20515;-68
2022/11/23 05:15:32;;;;;;;47.40;24.30;;;2.70;99.90;;;;;;5088026;28;20458;-67
2022/11/23 05:18:03;;;;;;;41.63;22.10;;;2.70;99.90;;;;;;5087924;28;20511;-67
2022/11/23 05:20:30;;;;;;;43.70;23.30;;;2.70;99.90;;;;;;5088409;28;20442;-67
2022/11/23 05:22:57;;;;;;;45.67;24.00;;;2.70;99.90;;;;;;5086772;28;20446;-67
2022/11/23 05:25:24;;;;;;;45.60;22.87;;;2.70;99.90;;;;;;5088680;28;20788;-66
2022/11/23 05:27:51;;;;;;;44.20;23.20;;;2.70;99.90;;;;;;5087234;28;20521;-66
2022/11/23 05:30:18;;;;;;;45.10;25.33;;;2.80;99.90;;;;;;5087825;28;20520;-67
2022/11/23 05:32:45;;;;;;;38.60;22.20;;;2.80;99.90;;;;;;5086653;28;20484;-68
2022/11/23 05:35:13;;;;;;;41.03;23.43;;;2.80;99.90;;;;;;5087657;28;20450;-67
2022/11/23 05:37:41;;;;;;;35.43;22.30;;;2.90;99.90;;;;;;5087287;28;20453;-67
2022/11/23 05:40:09;;;;;;;41.50;23.00;;;2.90;99.90;;;;;;5086870;28;20481;-68
2022/11/23 05:42:37;;;;;;;35.67;20.83;;;2.90;99.90;;;;;;5086398;28;20450;-67
2022/11/23 05:45:04;;;;;;;41.20;22.20;;;2.90;99.90;;;;;;5086190;28;20453;-68
2022/11/23 05:47:31;;;;;;;40.97;23.60;;;3.00;99.90;;;;;;5086034;28;20513;-66
2022/11/23 05:49:58;;;;;;;38.27;23.50;;;3.00;99.90;;;;;;5086074;28;20451;-68
2022/11/23 05:52:27;;;;;;;44.70;22.97;;;3.00;99.90;;;;;;5085399;28;20458;-66
2022/11/23 05:54:53;;;;;;;37.93;20.87;;;3.00;99.90;;;;;;5085144;28;20509;-67
2022/11/23 05:57:21;;;;;;;36.70;21.20;;;3.00;99.90;;;;;;5085168;28;20450;-67
2022/11/23 05:59:48;;;;;;;37.30;22.53;;;3.00;99.90;;;;;;5084565;28;20458;-66
2022/11/23 06:02:15;;;;;;;40.97;22.00;;;3.00;99.90;;;;;;5086154;28;20779;-67
2022/11/23 06:04:42;;;;;;;35.97;21.87;;;3.10;99.90;;;;;;5085918;28;20469;-67
2022/11/23 06:07:09;;;;;;;37.10;20.80;;;3.00;99.90;;;;;;5085526;28;20523;-67
2022/11/23 06:09:37;;;;;;;37.10;20.37;;;3.10;99.90;;;;;;5086263;28;20453;-67
2022/11/23 06:12:05;;;;;;;38.30;21.03;;;3.00;99.90;;;;;;5086536;28;20465;-67
2022/11/23 06:14:32;;;;;;;36.73;21.13;;;3.10;99.90;;;;;;5086089;28;20512;-67
2022/11/23 06:16:59;;;;;;;35.33;22.40;;;3.10;99.90;;;;;;5085547;28;20456;-66
2022/11/23 06:19:28;;;;;;;37.37;21.83;;;3.00;99.90;;;;;;5085425;28;20516;-67
2022/11/23 06:21:56;;;;;;;38.20;21.73;;;3.00;99.90;;;;;;5085093;28;20517;-67
2022/11/23 06:24:23;;;;;;;40.50;23.70;;;3.00;99.90;;;;;;5084727;28;20526;-67
2022/11/23 06:26:54;;;;;;;36.93;22.00;;;2.90;99.90;;;;;;5085323;28;20536;-67
2022/11/23 06:29:21;;;;;;;34.57;20.57;;;2.90;99.90;;;;;;5084935;28;20470;-67
2022/11/23 06:31:50;;;;;;;37.20;20.70;;;2.90;99.90;;;;;;5085001;28;20447;-67
2022/11/23 06:34:18;;;;;;;41.10;22.40;;;2.90;99.90;;;;;;5084480;28;20450;-67
2022/11/23 06:36:45;;;;;;;36.50;20.67;;;2.80;99.90;;;;;;5083967;28;20479;-67
2022/11/23 06:39:12;;;;;;;35.20;19.97;;;2.80;99.90;;;;;;5086501;28;20446;-67
2022/11/23 06:41:39;;;;;;;35.73;20.87;;;2.70;99.90;;;;;;5089209;28;20556;-67
2022/11/23 06:44:08;;;;;;;32.80;20.40;;;2.70;99.90;;;;;;5088781;28;20790;-68
2022/11/23 06:46:35;;;;;;;36.30;21.00;;;2.70;99.90;;;;;;5088788;28;20480;-69
2022/11/23 06:49:02;;;;;;;33.00;19.63;;;2.70;99.90;;;;;;5088398;28;20474;-68
2022/11/23 06:51:29;;;;;;;33.83;19.93;;;2.60;99.90;;;;;;5089123;28;20458;-68
2022/11/23 06:53:56;;;;;;;37.43;20.30;;;2.60;99.90;;;;;;5087924;28;20460;-67
2022/11/23 06:56:23;;;;;;;34.63;20.30;;;2.60;99.90;;;;;;5088387;28;20454;-67
2022/11/23 06:58:50;;;;;;;36.43;21.80;;;2.60;99.90;;;;;;5088784;28;20517;-68
2022/11/23 07:01:18;;;;;;;47.10;23.33;;;2.60;99.90;;;;;;5088400;28;20462;-68
2022/11/23 07:03:45;;;;;;;40.20;22.00;;;2.60;99.90;;;;;;5087298;28;20458;-67
2022/11/23 07:06:12;;;;;;;39.97;21.77;;;2.60;99.90;;;;;;5087955;28;20509;-67
2022/11/23 07:08:42;;;;;;;36.03;22.57;;;2.70;99.90;;;;;;5087665;28;20500;-68
2022/11/23 07:11:10;;;;;;;40.37;22.90;;;2.80;99.90;;;;;;5089214;28;20509;-67
2022/11/23 07:13:37;;;;;;;37.67;22.70;;;2.90;99.90;;;;;;5089323;28;20447;-67
2022/11/23 07:16:05;;;;;;;38.07;22.07;;;3.10;99.90;;;;;;5089804;28;20450;-67
2022/11/23 07:18:34;;;;;;;40.87;22.27;;;3.10;99.90;;;;;;5089313;28;20446;-68
2022/11/23 07:21:01;;;;;;;40.33;21.17;;;3.20;99.90;;;;;;5089369;28;20477;-67
2022/11/23 07:23:28;;;;;;;37.40;22.63;;;3.10;99.90;;;;;;5089535;28;20759;-67
2022/11/23 07:25:55;;;;;;;35.03;21.40;;;3.10;99.90;;;;;;5088794;28;20486;-68
2022/11/23 07:28:22;;;;;;;36.13;21.27;;;3.10;99.90;;;;;;5089146;28;20484;-67
2022/11/23 07:30:50;;;;;;;39.23;21.57;;;3.00;99.90;;;;;;5087851;28;20454;-67
2022/11/23 07:33:17;;;;;;;43.47;22.33;;;3.00;99.90;;;;;;5087657;28;20505;-67
2022/11/23 07:35:47;;;;;;;34.57;20.70;;;3.00;99.90;;;;;;5088419;28;20458;-68
2022/11/23 07:38:14;;;;;;;37.33;21.87;;;2.90;99.90;;;;;;5089678;28;20507;-69
2022/11/23 07:40:41;;;;;;;37.67;21.47;;;2.90;99.90;;;;;;5088768;28;20450;-71
2022/11/23 07:43:08;;;;;;;35.83;22.40;;;2.90;99.90;;;;;;5089179;28;20480;-68
2022/11/23 07:45:37;;;;;;;35.83;21.33;;;2.90;99.90;;;;;;5088748;28;20458;-67
2022/11/23 07:48:06;;;;;;;38.23;21.90;;;3.00;99.90;;;;;;5088363;28;20530;-68
2022/11/23 07:50:34;;;;;;;39.93;23.07;;;3.00;99.90;;;;;;5086672;28;20562;-67
2022/11/23 07:53:04;;;;;;;36.77;21.57;;;3.10;99.90;;;;;;5087028;28;20464;-69
2022/11/23 07:55:31;;;;;;;34.60;21.33;;;3.20;99.90;;;;;;5086071;28;20927;-67
2022/11/23 07:57:58;;;;;;;38.50;21.50;;;3.20;99.90;;;;;;5087291;28;20457;-67
2022/11/23 08:00:27;;;;;;;41.30;21.20;;;3.30;99.90;;;;;;5087225;28;20881;-67
2022/11/23 08:02:54;;;;;;;36.27;21.67;;;3.30;99.90;;;;;;5086796;28;20469;-68
2022/11/23 08:05:21;;;;;;;35.63;20.97;;;3.40;99.90;;;;;;5086861;28;20563;-67
2022/11/23 08:07:48;;;;;;;33.40;20.07;;;3.40;99.90;;;;;;5087063;28;20470;-68
2022/11/23 08:10:17;;;;;;;37.37;21.60;;;3.40;99.90;;;;;;5087499;28;20460;-68
2022/11/23 08:12:43;;;;;;;35.73;21.20;;;3.40;99.90;;;;;;5087523;28;20462;-68
2022/11/23 08:15:11;;;;;;;40.37;23.30;;;3.40;99.90;;;;;;5089234;28;20462;-68
2022/11/23 08:17:38;;;;;;;39.03;24.60;;;3.40;99.90;;;;;;5087950;28;20450;-67
2022/11/23 08:20:06;;;;;;;41.70;21.27;;;3.50;99.90;;;;;;5085860;28;20469;-68
2022/11/23 08:22:33;;;;;;;41.03;21.90;;;3.50;99.90;;;;;;5085754;28;20591;-68
2022/11/23 08:25:00;;;;;;;33.30;20.90;;;3.60;99.90;;;;;;5086145;28;20891;-68
2022/11/23 08:27:28;;;;;;;32.90;20.90;;;3.70;99.90;;;;;;5084855;28;20439;-68
2022/11/23 08:29:55;;;;;;;34.37;20.27;;;3.80;99.90;;;;;;5084825;28;20450;-70
2022/11/23 08:32:22;;;;;;;26.30;16.97;;;3.80;99.90;;;;;;5085255;28;20507;-67
2022/11/23 08:34:49;;;;;;;32.43;21.00;;;3.90;99.90;;;;;;5085467;28;20454;-69
2022/11/23 08:37:16;;;;;;;34.07;21.20;;;4.00;99.90;;;;;;5087394;28;20523;-68
2022/11/23 08:39:43;;;;;;;38.90;20.47;;;4.10;99.90;;;;;;5087038;28;20446;-68
2022/11/23 08:42:10;;;;;;;35.77;20.30;;;4.10;99.90;;;;;;5086633;28;20450;-68
2022/11/23 08:44:39;;;;;;;34.53;20.30;;;4.20;99.90;;;;;;5084375;28;20450;-67
2022/11/23 08:47:05;;;;;;;31.97;19.70;;;4.20;99.90;;;;;;5085864;28;20458;-68
2022/11/23 08:49:32;;;;;;;31.20;19.83;;;4.20;99.90;;;;;;5086642;28;20474;-67
2022/11/23 08:51:59;;;;;;;30.77;18.13;;;4.30;99.90;;;;;;5085997;28;20517;-69
2022/11/23 08:54:26;;;;;;;35.27;21.43;;;4.30;99.90;;;;;;5086862;28;20488;-68
2022/11/23 08:56:53;;;;;;;35.83;23.17;;;4.40;99.90;;;;;;5085385;28;20458;-68
2022/11/23 08:59:21;;;;;;;31.37;19.70;;;4.40;99.90;;;;;;5087238;28;20455;-68
2022/11/23 09:01:49;;;;;;;32.97;19.17;;;4.40;99.90;;;;;;5086409;28;20454;-68
2022/11/23 09:04:16;;;;;;;34.70;18.20;;;4.50;99.90;;;;;;5087441;28;20482;-69
2022/11/23 09:06:43;;;;;;;33.20;20.70;;;4.50;99.90;;;;;;5086203;28;20454;-68
2022/11/23 09:09:10;;;;;;;30.57;18.63;;;4.60;99.90;;;;;;5086724;28;20912;-68
2022/11/23 09:11:38;;;;;;;30.83;19.07;;;4.60;99.90;;;;;;5087425;28;20844;-67
2022/11/23 09:14:04;;;;;;;28.73;17.57;;;4.70;99.90;;;;;;5087225;28;20452;-68
2022/11/23 09:16:31;;;;;;;33.43;20.30;;;4.80;99.90;;;;;;5086553;28;20455;-68
2022/11/23 09:19:00;;;;;;;31.87;19.67;;;4.90;99.90;;;;;;5086265;28;20503;-69
2022/11/23 09:21:29;;;;;;;36.70;20.90;;;4.80;99.90;;;;;;5087228;28;20455;-67
2022/11/23 09:23:56;;;;;;;32.60;19.73;;;4.80;99.90;;;;;;5087804;28;20482;-68
2022/11/23 09:26:24;;;;;;;34.73;20.37;;;4.70;99.90;;;;;;5086783;28;20531;-69
2022/11/23 09:28:51;;;;;;;31.90;20.10;;;4.60;99.90;;;;;;5086892;28;20857;-67
2022/11/23 09:31:18;;;;;;;32.80;19.73;;;4.70;99.90;;;;;;5086226;28;20454;-69
2022/11/23 09:33:45;;;;;;;29.90;19.03;;;4.70;99.90;;;;;;5087427;28;20470;-68
2022/11/23 09:36:13;;;;;;;27.70;17.60;;;4.70;99.90;;;;;;5086750;28;20466;-68
2022/11/23 09:38:40;;;;;;;30.80;19.63;;;4.70;99.90;;;;;;5086728;28;20450;-69
2022/11/23 09:41:21;;;;;;;27.03;18.47;;;4.80;99.90;;;;;;5085716;28;20454;-69
2022/11/23 09:43:56;;;;;;;27.57;18.57;;;4.80;99.90;;;;;;5087169;28;20442;-68
2022/11/23 09:46:33;;;;;;;29.37;18.93;;;4.90;99.90;;;;;;5086992;28;20446;-68
2022/11/23 09:49:13;;;;;;;27.67;18.87;;;4.90;99.90;;;;;;5087418;28;20481;-68
2022/11/23 09:51:43;;;;;;;27.07;17.53;;;5.00;99.90;;;;;;5086311;28;20754;-68
2022/11/23 09:54:22;;;;;;;28.10;17.40;;;4.90;99.90;;;;;;5085409;28;20458;-68
2022/11/23 09:56:51;;;;;;;31.03;18.33;;;5.00;99.90;;;;;;5087008;28;20488;-68
2022/11/23 09:59:30;;;;;;;28.13;18.63;;;5.00;99.90;;;;;;5086454;28;20466;-68
2022/11/23 10:01:58;;;;;;;32.83;19.37;;;5.00;99.90;;;;;;5085783;28;20500;-68
2022/11/23 10:04:26;;;;;;;30.83;17.40;;;5.00;99.90;;;;;;5086220;28;20450;-68
2022/11/23 10:07:02;;;;;;;27.57;18.10;;;5.10;99.90;;;;;;5086016;28;20492;-67
2022/11/23 10:09:41;;;;;;;29.70;19.10;;;5.10;99.90;;;;;;5085912;28;20461;-67
2022/11/23 10:12:32;;;;;;;32.07;18.00;;;5.20;99.90;;;;;;5083519;28;20515;-68
2022/11/23 10:15:10;;;;;;;25.73;16.30;;;5.20;99.90;;;;;;5082707;28;20477;-68
2022/11/23 10:18:02;;;;;;;26.70;18.17;;;5.30;99.90;;;;;;5084853;28;20521;-68
2022/11/23 10:20:41;;;;;;;27.60;19.10;;;5.40;99.90;;;;;;5085038;28;20445;-68
2022/11/23 10:23:16;;;;;;;31.40;18.43;;;5.50;99.90;;;;;;5084238;28;20442;-68
2022/11/23 10:25:51;;;;;;;37.40;23.40;;;5.60;99.90;;;;;;5083644;28;20498;-67
2022/11/23 10:28:20;;;;;;;38.10;22.80;;;5.70;99.90;;;;;;5083635;28;20499;-67
2022/11/23 10:30:53;;;;;;;42.60;25.70;;;5.80;99.90;;;;;;5083794;28;20929;-67
2022/11/23 10:33:28;;;;;;;50.00;33.07;;;5.90;99.90;;;;;;5081737;28;20442;-68
2022/11/23 10:35:55;;;;;;;45.27;30.17;;;6.00;99.90;;;;;;5082413;28;20883;-67
2022/11/23 10:38:26;;;;;;;39.13;25.67;;;6.10;99.90;;;;;;5082417;28;20899;-67
2022/11/23 10:41:02;;;;;;;36.27;22.87;;;6.20;99.90;;;;;;5084177;28;20957;-68
2022/11/23 10:43:33;;;;;;;34.40;22.23;;;6.30;99.90;;;;;;5083877;28;20442;-68
2022/11/23 10:46:29;;;;;;;32.70;21.90;;;6.40;99.90;;;;;;5084022;28;20472;-68
2022/11/23 10:49:09;;;;;;;29.60;19.60;;;6.50;99.90;;;;;;5084011;28;20581;-68
2022/11/23 10:51:37;;;;;;;26.33;16.80;;;6.70;99.90;;;;;;5084404;28;20445;-68
2022/11/23 10:54:16;;;;;;;24.20;16.70;;;6.80;99.90;;;;;;5084554;28;20457;-69
2022/11/23 10:56:47;;;;;;;22.63;15.60;;;6.90;99.90;;;;;;5083770;28;20446;-67
2022/11/23 10:59:30;;;;;;;24.90;16.00;;;7.00;99.90;;;;;;5084467;28;20435;-68
2022/11/23 11:02:03;;;;;;;23.93;15.40;;;7.10;99.90;;;;;;5083516;28;20485;-67
2022/11/23 11:04:30;;;;;;;22.30;14.53;;;7.20;99.90;;;;;;5082907;28;20458;-68
2022/11/23 11:07:16;;;;;;;23.20;15.70;;;7.40;99.90;;;;;;5083735;28;20458;-68
2022/11/23 11:09:49;;;;;;;24.50;16.67;;;7.50;99.90;;;;;;5080350;28;20462;-68
2022/11/23 11:12:17;;;;;;;23.33;14.90;;;7.70;99.90;;;;;;5080821;28;20466;-68
2022/11/23 11:14:56;;;;;;;27.53;15.60;;;7.90;99.90;;;;;;5080495;28;20840;-67
2022/11/23 11:17:28;;;;;;;22.07;14.77;;;8.10;99.90;;;;;;5081997;28;20477;-67
2022/11/23 11:19:55;;;;;;;23.50;15.17;;;8.40;99.90;;;;;;5081847;28;20499;-68
2022/11/23 11:22:29;;;;;;;28.27;16.17;;;8.50;99.90;;;;;;5081193;28;20450;-68
2022/11/23 11:24:57;;;;;;;24.23;15.00;;;8.60;99.90;;;;;;5081128;28;20442;-68
2022/11/23 11:27:26;;;;;;;21.90;14.47;;;8.70;99.90;;;;;;5084256;28;20509;-68
2022/11/23 11:29:56;;;;;;;21.90;14.33;;;8.90;99.90;;;;;;5084131;28;20509;-69
2022/11/23 11:32:30;;;;;;;19.87;14.57;;;8.90;99.90;;;;;;5083725;28;20476;-69
2022/11/23 11:35:03;;;;;;;23.20;16.80;;;9.00;99.90;;;;;;5083004;28;20499;-68
2022/11/23 11:37:35;;;;;;;22.23;14.03;;;9.10;99.90;;;;;;5082745;28;20481;-69
2022/11/23 11:40:10;;;;;;;24.70;13.57;;;9.20;99.90;;;;;;5083391;28;20443;-67
2022/11/23 11:42:41;;;;;;;19.50;14.80;;;9.40;99.90;;;;;;5084246;28;20449;-67
2022/11/23 11:45:19;;;;;;;20.60;14.67;;;9.50;99.90;;;;;;5082370;28;20523;-69
2022/11/23 11:47:50;;;;;;;20.60;14.40;;;9.60;99.90;;;;;;5081516;28;20447;-68
2022/11/23 11:50:23;;;;;;;22.83;14.53;;;9.70;99.90;;;;;;5081096;28;20461;-68
2022/11/23 11:52:55;;;;;;;20.20;14.87;;;9.90;99.90;;;;;;5081260;28;20434;-69
2022/11/23 11:55:28;;;;;;;17.77;13.17;;;9.90;99.90;;;;;;5081507;28;20438;-68
2022/11/23 11:57:59;;;;;;;20.00;13.03;;;10.00;99.90;;;;;;5080627;28;20520;-68
2022/11/23 12:00:28;;;;;;;24.93;16.10;;;10.00;99.90;;;;;;5080497;28;20902;-67
2022/11/23 12:03:03;;;;;;;31.00;19.80;;;10.10;99.90;;;;;;5080947;28;20458;-68
2022/11/23 12:05:37;;;;;;;19.37;12.93;;;10.40;99.90;;;;;;5080582;28;20442;-69
2022/11/23 12:08:10;;;;;;;17.03;11.53;;;11.00;99.90;;;;;;5080657;28;20438;-67
2022/11/23 12:10:44;;;;;;;17.93;13.10;;;11.60;99.90;;;;;;5081456;28;20490;-67
2022/11/23 12:13:15;;;;;;;16.80;12.90;;;11.90;99.90;;;;;;5083210;28;20457;-68
2022/11/23 12:15:46;;;;;;;19.20;13.27;;;12.20;99.90;;;;;;5084359;28;20439;-68
2022/11/23 12:18:47;;;;;;;18.37;13.83;;;12.20;99.90;;;;;;5085022;28;20442;-68
2022/11/23 12:21:36;;;;;;;18.67;13.20;;;12.20;99.90;;;;;;5086282;28;20454;-68
2022/11/23 12:24:11;;;;;;;21.03;13.33;;;12.00;99.90;;;;;;5082828;28;20454;-68
2022/11/23 12:26:48;;;;;;;22.47;15.03;;;11.90;99.90;;;;;;5083115;28;20852;-67
2022/11/23 12:29:49;;;;;;;19.97;12.97;;;12.50;99.90;;;;;;5083495;28;20550;-68
2022/11/23 12:32:25;;;;;;;14.90;11.33;;;13.10;99.90;;;;;;5082519;28;20864;-68
2022/11/23 12:35:05;;;;;;;16.33;11.87;;;13.60;99.90;;;;;;5086188;28;20430;-68
2022/11/23 12:37:41;;;;;;;16.43;12.40;;;13.80;99.90;;;;;;5085644;28;20461;-68
2022/11/23 12:40:29;;;;;;;18.67;13.20;;;13.80;99.90;;;;;;5086622;28;20439;-68
2022/11/23 12:43:02;;;;;;;16.60;12.03;;;13.70;99.90;;;;;;5085784;28;20439;-69
2022/11/23 12:45:47;;;;;;;17.03;11.73;;;13.30;99.90;;;;;;5084614;28;20516;-69
2022/11/23 12:48:27;;;;;;;20.17;13.50;;;12.80;99.90;;;;;;5083836;28;20754;-67